createdAt,value
2019-05-18T00:00:20.066Z,11.60
2019-05-18T00:02:47.604Z,11.60
2019-05-18T00:05:15.169Z,11.30
2019-05-18T00:07:42.703Z,11.20
2019-05-18T00:10:10.267Z,11.30
2019-05-18T00:12:37.821Z,11.30
2019-05-18T00:15:06.380Z,11.40
2019-05-18T00:17:33.926Z,11.40
2019-05-18T00:20:01.503Z,11.40
2019-05-18T00:22:29.049Z,11.40
2019-05-18T00:24:56.612Z,11.30
2019-05-18T00:27:24.143Z,11.30
2019-05-18T00:29:52.468Z,11.30
2019-05-18T00:32:20.057Z,11.30
2019-05-18T00:34:47.607Z,11.40
2019-05-18T00:37:15.144Z,11.40
2019-05-18T00:39:43.692Z,11.30
2019-05-18T00:42:11.252Z,11.20
2019-05-18T00:44:38.814Z,11.20
2019-05-18T00:47:07.273Z,11.00
2019-05-18T00:49:34.828Z,11.00
2019-05-18T00:52:02.391Z,11.00
2019-05-18T00:54:29.955Z,11.00
2019-05-18T00:56:57.495Z,11.10
2019-05-18T00:59:25.056Z,11.10
2019-05-18T01:01:52.620Z,11.10
2019-05-18T01:04:20.178Z,11.10
2019-05-18T01:06:47.716Z,11.00
2019-05-18T01:09:16.442Z,11.10
2019-05-18T01:11:44.008Z,11.00
2019-05-18T01:14:11.575Z,11.00
2019-05-18T01:16:39.107Z,11.00
2019-05-18T01:19:06.671Z,11.00
2019-05-18T01:21:34.204Z,10.90
2019-05-18T01:24:01.771Z,10.90
2019-05-18T01:26:29.316Z,10.80
2019-05-18T01:28:58.368Z,10.80
2019-05-18T01:31:25.915Z,10.80
2019-05-18T01:33:53.475Z,10.80
2019-05-18T01:36:21.036Z,10.80
2019-05-18T01:38:48.591Z,10.70
2019-05-18T01:41:16.123Z,10.60
2019-05-18T01:43:43.682Z,10.70
2019-05-18T01:46:11.266Z,10.60
2019-05-18T01:48:38.799Z,10.60
2019-05-18T01:51:06.357Z,10.60
2019-05-18T01:53:33.959Z,10.70
2019-05-18T01:56:02.290Z,10.70
2019-05-18T01:58:29.827Z,10.70
2019-05-18T02:00:57.392Z,10.70
2019-05-18T02:03:26.054Z,10.70
2019-05-18T02:05:52.564Z,10.70
2019-05-18T02:08:20.104Z,10.70
2019-05-18T02:10:47.659Z,10.70
2019-05-18T02:13:15.202Z,10.60
2019-05-18T02:15:42.763Z,10.60
2019-05-18T02:18:10.400Z,10.60
2019-05-18T02:20:39.004Z,10.60
2019-05-18T02:23:06.534Z,10.60
2019-05-18T02:25:34.099Z,10.70
2019-05-18T02:28:01.635Z,10.70
2019-05-18T02:30:29.211Z,10.70
2019-05-18T02:32:56.764Z,10.70
2019-05-18T02:35:24.328Z,10.70
2019-05-18T02:37:51.869Z,10.60
2019-05-18T02:40:19.430Z,10.60
2019-05-18T02:42:46.968Z,10.60
2019-05-18T02:45:14.527Z,10.70
2019-05-18T02:47:42.064Z,10.60
2019-05-18T02:50:09.634Z,10.60
2019-05-18T02:52:37.172Z,10.60
2019-05-18T02:55:04.740Z,10.60
2019-05-18T02:57:32.280Z,10.60
2019-05-18T02:59:59.847Z,10.60
2019-05-18T03:02:28.176Z,10.70
2019-05-18T03:04:55.740Z,10.60
2019-05-18T03:07:23.295Z,10.70
2019-05-18T03:09:50.874Z,10.70
2019-05-18T03:12:18.415Z,10.70
2019-05-18T03:14:45.955Z,10.70
2019-05-18T03:17:13.518Z,10.80
2019-05-18T03:19:41.068Z,10.80
2019-05-18T03:22:08.631Z,10.80
2019-05-18T03:24:36.171Z,10.80
2019-05-18T03:27:03.733Z,10.70
2019-05-18T03:29:31.276Z,10.60
2019-05-18T03:31:58.837Z,10.60
2019-05-18T03:34:26.389Z,10.60
2019-05-18T03:36:53.957Z,10.50
2019-05-18T03:39:21.493Z,10.60
2019-05-18T03:41:49.058Z,10.60
2019-05-18T03:44:16.595Z,10.50
2019-05-18T03:46:44.166Z,10.50
2019-05-18T03:49:25.968Z,10.40
2019-05-18T03:51:39.292Z,10.40
2019-05-18T03:54:06.857Z,10.40
2019-05-18T03:56:34.432Z,10.30
2019-05-18T03:59:02.249Z,10.30
2019-05-18T04:01:29.794Z,10.20
2019-05-18T04:03:57.364Z,10.20
2019-05-18T04:06:25.688Z,10.20
2019-05-18T04:08:53.248Z,10.20
2019-05-18T04:11:20.789Z,10.10
2019-05-18T04:13:48.366Z,10.10
2019-05-18T04:16:15.931Z,10.10
2019-05-18T04:18:43.474Z,10.10
2019-05-18T04:21:11.039Z,10.00
2019-05-18T04:23:38.605Z,10.00
2019-05-18T04:26:06.176Z,10.10
2019-05-18T04:28:33.748Z,10.10
2019-05-18T04:31:01.294Z,10.10
2019-05-18T04:33:28.879Z,10.10
2019-05-18T04:35:56.440Z,10.10
2019-05-18T04:38:24.745Z,10.10
2019-05-18T04:40:52.325Z,10.10
2019-05-18T04:43:19.911Z,10.10
2019-05-18T04:45:47.492Z,10.20
2019-05-18T04:48:15.043Z,10.20
2019-05-18T04:50:42.611Z,10.20
2019-05-18T04:53:10.192Z,10.20
2019-05-18T04:55:37.728Z,10.20
2019-05-18T04:58:05.296Z,10.20
2019-05-18T05:00:32.861Z,10.30
2019-05-18T05:03:00.417Z,10.50
2019-05-18T05:05:27.977Z,10.60
2019-05-18T05:07:55.544Z,10.60
2019-05-18T05:10:23.113Z,10.70
2019-05-18T05:12:50.651Z,10.70
2019-05-18T05:15:18.530Z,10.80
2019-05-18T05:17:46.109Z,10.80
2019-05-18T05:20:19.681Z,10.90
2019-05-18T05:22:42.254Z,10.80
2019-05-18T05:25:09.815Z,10.70
2019-05-18T05:27:37.355Z,10.90
2019-05-18T05:30:06.792Z,11.10
2019-05-18T05:32:34.366Z,11.10
2019-05-18T05:35:01.985Z,11.30
2019-05-18T05:37:30.555Z,11.40
2019-05-18T05:39:58.108Z,11.50
2019-05-18T05:42:25.684Z,11.50
2019-05-18T05:44:53.260Z,11.50
2019-05-18T05:47:20.833Z,11.40
2019-05-18T05:49:48.373Z,11.50
2019-05-18T05:52:16.711Z,11.80
2019-05-18T05:54:44.255Z,11.70
2019-05-18T05:57:11.797Z,11.80
2019-05-18T05:59:39.463Z,11.70
2019-05-18T06:02:07.028Z,11.90
2019-05-18T06:04:34.592Z,12.00
2019-05-18T06:07:02.138Z,12.10
2019-05-18T06:09:29.793Z,12.10
2019-05-18T06:11:57.369Z,12.10
2019-05-18T06:14:25.945Z,12.20
2019-05-18T06:16:53.483Z,12.30
2019-05-18T06:19:21.051Z,12.30
2019-05-18T06:21:48.635Z,12.40
2019-05-18T06:24:16.183Z,12.60
2019-05-18T06:26:43.750Z,12.80
2019-05-18T06:29:11.292Z,12.70
2019-05-18T06:31:38.857Z,12.60
2019-05-18T06:34:06.399Z,12.70
2019-05-18T06:36:33.963Z,12.70
2019-05-18T06:39:01.531Z,12.70
2019-05-18T06:41:29.067Z,12.80
2019-05-18T06:43:58.427Z,13.10
2019-05-18T06:46:24.992Z,13.30
2019-05-18T06:48:52.604Z,13.30
2019-05-18T06:51:20.135Z,13.30
2019-05-18T06:53:47.720Z,13.50
2019-05-18T06:56:16.032Z,13.70
2019-05-18T06:58:43.597Z,13.70
2019-05-18T07:01:11.165Z,13.80
2019-05-18T07:03:38.748Z,13.90
2019-05-18T07:06:06.304Z,14.00
2019-05-18T07:08:33.840Z,14.10
2019-05-18T07:11:01.414Z,14.00
2019-05-18T07:13:29.018Z,13.90
2019-05-18T07:15:56.574Z,13.70
2019-05-18T07:18:24.116Z,13.90
2019-05-18T07:20:52.449Z,14.20
2019-05-18T07:23:20.017Z,14.20
2019-05-18T07:25:47.592Z,14.30
2019-05-18T07:28:15.149Z,14.40
2019-05-18T07:30:42.720Z,14.20
2019-05-18T07:33:10.507Z,14.10
2019-05-18T07:35:38.073Z,14.40
2019-05-18T07:38:05.607Z,14.70
2019-05-18T07:40:33.916Z,15.10
2019-05-18T07:43:01.488Z,15.10
2019-05-18T07:45:29.023Z,15.20
2019-05-18T07:47:56.597Z,15.00
2019-05-18T07:50:24.138Z,15.00
2019-05-18T07:52:51.708Z,14.70
2019-05-18T07:55:19.259Z,14.90
2019-05-18T07:57:46.799Z,15.00
2019-05-18T08:00:14.360Z,15.20
2019-05-18T08:02:41.911Z,15.30
2019-05-18T08:05:09.484Z,15.30
2019-05-18T08:07:37.019Z,15.40
2019-05-18T08:10:06.039Z,15.40
2019-05-18T08:12:33.575Z,15.40
2019-05-18T08:15:01.142Z,15.50
2019-05-18T08:17:28.799Z,15.60
2019-05-18T08:19:56.368Z,15.60
2019-05-18T08:22:23.925Z,15.70
2019-05-18T08:24:51.506Z,15.70
2019-05-18T08:27:19.078Z,15.60
2019-05-18T08:29:46.650Z,15.70
2019-05-18T08:32:14.200Z,15.80
2019-05-18T08:34:41.736Z,16.20
2019-05-18T08:37:10.272Z,16.50
2019-05-18T08:39:37.812Z,16.60
2019-05-18T08:42:06.144Z,16.30
2019-05-18T08:44:33.709Z,16.30
2019-05-18T08:47:01.271Z,16.10
2019-05-18T08:49:28.833Z,16.30
2019-05-18T08:52:07.957Z,16.70
2019-05-18T08:54:25.009Z,17.10
2019-05-18T08:56:52.557Z,17.10
2019-05-18T08:59:21.138Z,16.90
2019-05-18T09:01:49.488Z,16.80
2019-05-18T09:04:17.064Z,16.80
2019-05-18T09:06:44.620Z,17.00
2019-05-18T09:09:12.180Z,17.40
2019-05-18T09:11:40.516Z,17.70
2019-05-18T09:14:08.056Z,17.70
2019-05-18T09:16:35.819Z,17.90
2019-05-18T09:19:03.384Z,18.00
2019-05-18T09:21:30.964Z,17.60
2019-05-18T09:23:58.509Z,17.50
2019-05-18T09:26:27.063Z,17.50
2019-05-18T09:28:54.686Z,17.70
2019-05-18T09:31:22.253Z,17.50
2019-05-18T09:33:49.800Z,17.90
2019-05-18T09:36:18.120Z,18.10
2019-05-18T09:38:45.681Z,18.10
2019-05-18T09:41:13.261Z,17.90
2019-05-18T09:43:40.800Z,17.70
2019-05-18T09:46:08.371Z,18.20
2019-05-18T09:48:35.987Z,18.50
2019-05-18T09:51:03.555Z,18.70
2019-05-18T09:53:31.138Z,18.60
2019-05-18T09:55:58.782Z,18.90
2019-05-18T09:58:27.189Z,19.20
2019-05-18T10:00:54.755Z,19.00
2019-05-18T10:03:24.099Z,18.90
2019-05-18T10:05:51.668Z,18.90
2019-05-18T10:08:19.714Z,18.80
2019-05-18T10:10:48.324Z,19.20
2019-05-18T10:13:15.946Z,19.30
2019-05-18T10:15:43.509Z,19.30
2019-05-18T10:18:11.051Z,19.40
2019-05-18T10:20:40.360Z,19.50
2019-05-18T10:23:12.713Z,19.30
2019-05-18T10:25:36.320Z,19.20
2019-05-18T10:28:03.872Z,19.60
2019-05-18T10:30:31.443Z,19.60
2019-05-18T10:32:59.007Z,19.60
2019-05-18T10:35:27.566Z,19.90
2019-05-18T10:37:55.182Z,20.40
2019-05-18T10:40:22.728Z,20.00
2019-05-18T10:42:50.296Z,19.90
2019-05-18T10:45:17.837Z,20.00
2019-05-18T10:47:45.455Z,20.50
2019-05-18T10:50:13.017Z,20.20
2019-05-18T10:52:40.582Z,20.20
2019-05-18T10:55:08.155Z,20.60
2019-05-18T10:57:35.740Z,20.80
2019-05-18T11:00:07.054Z,20.80
2019-05-18T11:02:34.651Z,20.50
2019-05-18T11:05:02.877Z,20.70
2019-05-18T11:07:30.486Z,20.50
2019-05-18T11:09:59.054Z,20.60
2019-05-18T11:12:27.362Z,20.70
2019-05-18T11:14:54.928Z,20.70
2019-05-18T11:17:22.495Z,20.80
2019-05-18T11:19:51.051Z,21.20
2019-05-18T11:22:18.748Z,21.40
2019-05-18T11:24:46.509Z,20.80
2019-05-18T11:27:14.075Z,20.40
2019-05-18T11:29:41.657Z,20.90
2019-05-18T11:32:09.981Z,20.80
2019-05-18T11:34:37.553Z,20.80
2019-05-18T11:37:05.142Z,20.70
2019-05-18T11:39:32.727Z,20.30
2019-05-18T11:42:01.041Z,20.30
2019-05-18T11:44:28.603Z,20.20
2019-05-18T11:46:56.251Z,19.80
2019-05-18T11:49:23.821Z,20.30
2019-05-18T11:51:51.364Z,20.80
2019-05-18T11:54:18.903Z,21.40
2019-05-18T11:56:47.497Z,21.40
2019-05-18T11:59:15.932Z,21.20
2019-05-18T12:01:43.486Z,20.70
2019-05-18T12:04:11.097Z,20.60
2019-05-18T12:06:38.661Z,21.10
2019-05-18T12:09:06.238Z,21.70
2019-05-18T12:11:33.814Z,21.70
2019-05-18T12:14:01.387Z,21.80
2019-05-18T12:16:30.129Z,21.80
2019-05-18T12:18:57.868Z,21.80
2019-05-18T12:21:26.332Z,22.10
2019-05-18T12:23:53.922Z,22.40
2019-05-18T12:26:21.470Z,22.80
2019-05-18T12:28:49.131Z,22.90
2019-05-18T12:31:16.697Z,22.70
2019-05-18T12:33:44.236Z,22.80
2019-05-18T12:36:15.438Z,22.90
2019-05-18T12:38:40.345Z,22.90
2019-05-18T12:41:07.925Z,22.90
2019-05-18T12:43:35.466Z,22.90
2019-05-18T12:46:03.796Z,22.20
2019-05-18T12:48:31.344Z,22.20
2019-05-18T12:50:58.877Z,22.60
2019-05-18T12:53:26.439Z,22.70
2019-05-18T12:55:54.002Z,22.30
2019-05-18T12:58:21.544Z,22.50
2019-05-18T13:00:49.085Z,22.50
2019-05-18T13:03:16.660Z,22.50
2019-05-18T13:05:44.202Z,22.20
2019-05-18T13:08:11.764Z,21.50
2019-05-18T13:10:39.307Z,21.20
2019-05-18T13:13:07.643Z,19.20
2019-05-18T13:15:35.186Z,19.20
2019-05-18T13:18:02.751Z,18.80
2019-05-18T13:20:30.304Z,18.60
2019-05-18T13:22:57.868Z,18.60
2019-05-18T13:25:25.446Z,18.60
2019-05-18T13:27:53.762Z,18.60
2019-05-18T13:30:21.340Z,18.60
2019-05-18T13:32:48.915Z,18.20
2019-05-18T13:35:16.555Z,18.10
2019-05-18T13:37:44.123Z,18.20
2019-05-18T13:40:11.694Z,18.30
2019-05-18T13:42:39.262Z,18.20
2019-05-18T13:45:06.812Z,18.40
2019-05-18T13:47:34.389Z,18.70
2019-05-18T13:50:01.955Z,18.50
2019-05-18T13:52:30.316Z,18.50
2019-05-18T13:55:04.048Z,18.50
2019-05-18T13:57:25.485Z,19.00
2019-05-18T13:59:53.052Z,19.00
2019-05-18T14:02:20.612Z,18.70
2019-05-18T14:04:48.552Z,18.50
2019-05-18T14:07:16.113Z,18.90
2019-05-18T14:09:43.688Z,18.90
2019-05-18T14:12:11.227Z,18.60
2019-05-18T14:14:38.795Z,18.60
2019-05-18T14:17:06.343Z,18.40
2019-05-18T14:19:33.970Z,18.10
2019-05-18T14:22:02.293Z,18.50
2019-05-18T14:24:29.886Z,18.40
2019-05-18T14:26:58.193Z,18.10
2019-05-18T14:29:25.760Z,18.10
2019-05-18T14:31:53.299Z,18.20
2019-05-18T14:34:21.640Z,18.80
2019-05-18T14:36:49.180Z,18.80
2019-05-18T14:39:16.722Z,18.70
2019-05-18T14:41:44.288Z,18.80
2019-05-18T14:44:11.827Z,19.00
2019-05-18T14:46:40.384Z,19.10
2019-05-18T14:49:07.957Z,18.80
2019-05-18T14:51:35.520Z,18.80
2019-05-18T14:54:04.050Z,18.70
2019-05-18T14:56:31.687Z,18.60
2019-05-18T14:58:59.247Z,18.70
2019-05-18T15:01:26.780Z,18.60
2019-05-18T15:03:54.352Z,18.70
2019-05-18T15:06:21.920Z,18.80
2019-05-18T15:08:49.456Z,18.90
2019-05-18T15:11:17.023Z,19.10
2019-05-18T15:13:44.566Z,18.90
2019-05-18T15:16:13.123Z,19.00
2019-05-18T15:18:40.687Z,19.10
2019-05-18T15:21:08.256Z,19.60
2019-05-18T15:23:35.792Z,19.80
2019-05-18T15:26:03.371Z,19.70
2019-05-18T15:28:30.938Z,19.50
2019-05-18T15:30:58.502Z,19.30
2019-05-18T15:33:26.035Z,19.30
2019-05-18T15:35:53.591Z,18.90
2019-05-18T15:38:21.160Z,18.90
2019-05-18T15:40:48.725Z,19.00
2019-05-18T15:43:16.257Z,18.90
2019-05-18T15:45:44.585Z,18.10
2019-05-18T15:48:12.128Z,18.10
2019-05-18T15:50:39.698Z,18.10
2019-05-18T15:53:07.248Z,18.20
2019-05-18T15:55:34.805Z,18.40
2019-05-18T15:58:03.045Z,18.40
2019-05-18T16:00:30.584Z,18.60
2019-05-18T16:02:58.917Z,18.70
2019-05-18T16:05:26.453Z,18.70
2019-05-18T16:07:54.218Z,18.70
2019-05-18T16:10:21.795Z,18.70
2019-05-18T16:12:49.361Z,18.60
2019-05-18T16:15:16.909Z,18.70
2019-05-18T16:17:44.451Z,18.70
2019-05-18T16:20:12.021Z,18.80
2019-05-18T16:22:39.596Z,18.50
2019-05-18T16:25:07.160Z,18.40
2019-05-18T16:27:34.717Z,18.40
2019-05-18T16:30:04.063Z,18.70
2019-05-18T16:32:31.660Z,18.70
2019-05-18T16:34:59.224Z,18.80
2019-05-18T16:37:26.772Z,19.00
2019-05-18T16:39:54.390Z,19.10
2019-05-18T16:42:21.955Z,18.80
2019-05-18T16:44:49.517Z,18.70
2019-05-18T16:47:17.055Z,18.60
2019-05-18T16:49:44.620Z,18.70
2019-05-18T16:52:12.303Z,18.70
2019-05-18T16:54:39.867Z,18.70
2019-05-18T16:57:07.408Z,18.70
2019-05-18T16:59:34.997Z,18.70
2019-05-18T17:02:02.530Z,18.60
2019-05-18T17:04:30.095Z,18.60
2019-05-18T17:06:57.637Z,18.50
2019-05-18T17:09:25.244Z,18.40
2019-05-18T17:11:52.790Z,18.40
2019-05-18T17:14:20.356Z,18.30
2019-05-18T17:16:47.931Z,18.20
2019-05-18T17:19:15.488Z,18.00
2019-05-18T17:21:43.025Z,17.90
2019-05-18T17:24:10.598Z,17.80
2019-05-18T17:26:51.487Z,17.50
2019-05-18T17:29:05.744Z,17.40
2019-05-18T17:31:33.284Z,17.30
2019-05-18T17:34:00.869Z,17.20
2019-05-18T17:36:28.413Z,17.10
2019-05-18T17:38:56.948Z,17.00
2019-05-18T17:41:25.256Z,16.90
2019-05-18T17:43:52.817Z,16.90
2019-05-18T17:46:20.380Z,16.80
2019-05-18T17:48:47.965Z,16.70
2019-05-18T17:51:15.514Z,16.70
2019-05-18T17:53:43.078Z,16.70
2019-05-18T17:56:10.644Z,16.50
2019-05-18T17:58:38.179Z,16.40
2019-05-18T18:01:05.743Z,16.30
2019-05-18T18:03:33.316Z,16.30
2019-05-18T18:06:00.879Z,16.20
2019-05-18T18:08:28.415Z,16.20
2019-05-18T18:10:55.983Z,16.00
2019-05-18T18:13:23.629Z,15.90
2019-05-18T18:15:51.199Z,15.90
2019-05-18T18:18:18.734Z,16.00
2019-05-18T18:20:46.281Z,15.90
2019-05-18T18:23:13.849Z,15.90
2019-05-18T18:25:41.395Z,15.90
2019-05-18T18:28:09.924Z,15.90
2019-05-18T18:30:37.527Z,15.80
2019-05-18T18:33:05.080Z,15.70
2019-05-18T18:38:26.360Z,15.50
2019-05-18T18:40:53.928Z,15.40
2019-05-18T18:43:21.454Z,15.30
2019-05-18T18:45:49.014Z,15.20
2019-05-18T18:48:16.551Z,15.10
2019-05-18T18:50:45.108Z,15.10
2019-05-18T18:53:12.648Z,15.10
2019-05-18T18:55:40.203Z,15.00
2019-05-18T18:58:07.737Z,14.90
2019-05-18T19:00:35.300Z,14.80
2019-05-18T19:03:02.832Z,14.90
2019-05-18T19:05:30.415Z,14.80
2019-05-18T19:07:58.124Z,14.70
2019-05-18T19:10:25.684Z,14.70
2019-05-18T19:12:53.222Z,14.50
2019-05-18T19:15:21.545Z,14.50
2019-05-18T19:17:50.093Z,14.50
2019-05-18T19:20:17.663Z,14.40
2019-05-18T19:22:45.201Z,14.40
2019-05-18T19:25:13.526Z,14.30
2019-05-18T19:27:54.035Z,14.30
2019-05-18T19:30:10.289Z,14.30
2019-05-18T19:32:37.279Z,14.40
2019-05-18T19:35:04.828Z,14.40
2019-05-18T19:37:32.398Z,14.20
2019-05-18T19:39:59.931Z,14.20
2019-05-18T19:42:27.516Z,14.00
2019-05-18T19:44:55.079Z,14.10
2019-05-18T19:47:22.615Z,14.20
2019-05-18T19:49:50.175Z,14.20
2019-05-18T19:52:17.740Z,14.20
2019-05-18T19:54:45.313Z,14.10
2019-05-18T19:57:12.892Z,14.10
2019-05-18T19:59:40.467Z,14.10
2019-05-18T20:02:08.032Z,14.10
2019-05-18T20:04:35.588Z,14.10
2019-05-18T20:07:03.125Z,14.00
2019-05-18T20:09:30.685Z,13.90
2019-05-18T20:11:58.247Z,13.90
2019-05-18T20:14:25.817Z,13.80
2019-05-18T20:16:53.399Z,13.80
2019-05-18T20:19:20.994Z,13.70
2019-05-18T20:21:48.560Z,13.70
2019-05-18T20:24:16.127Z,13.60
2019-05-18T20:26:43.659Z,13.50
2019-05-18T20:29:11.221Z,13.50
2019-05-18T20:31:38.751Z,13.40
2019-05-18T20:34:06.310Z,13.30
2019-05-18T20:36:33.849Z,13.20
2019-05-18T20:39:02.467Z,13.20
2019-05-18T20:41:30.735Z,13.10
2019-05-18T20:43:58.309Z,13.00
2019-05-18T20:46:26.386Z,13.00
2019-05-18T20:48:54.139Z,13.00
2019-05-18T20:51:21.671Z,12.90
2019-05-18T20:53:49.231Z,12.90
2019-05-18T20:56:16.765Z,12.80
2019-05-18T20:58:45.096Z,12.70
2019-05-18T21:01:13.577Z,12.70
2019-05-18T21:03:41.211Z,12.50
2019-05-18T21:06:08.763Z,12.40
2019-05-18T21:08:38.248Z,12.30
2019-05-18T21:11:05.785Z,12.20
2019-05-18T21:13:33.347Z,12.10
2019-05-18T21:16:00.881Z,12.10
2019-05-18T21:18:28.443Z,12.20
2019-05-18T21:20:55.975Z,12.20
2019-05-18T21:23:23.734Z,12.20
2019-05-18T21:25:51.327Z,12.20
2019-05-18T21:28:18.929Z,12.10
2019-05-18T21:30:46.489Z,12.00
2019-05-18T21:33:14.471Z,12.00
2019-05-18T21:35:43.019Z,11.90
2019-05-18T21:38:10.580Z,11.80
2019-05-18T21:40:38.260Z,11.80
2019-05-18T21:43:05.797Z,11.80
2019-05-18T21:45:33.384Z,11.80
2019-05-18T21:48:00.920Z,11.80
2019-05-18T21:50:28.479Z,11.80
2019-05-18T21:52:56.012Z,11.80
2019-05-18T21:55:23.576Z,11.70
2019-05-18T21:57:51.108Z,11.70
2019-05-18T22:00:19.026Z,11.60
2019-05-18T22:02:46.560Z,11.50
2019-05-18T22:05:14.454Z,11.60
2019-05-18T22:07:41.986Z,11.60
2019-05-18T22:10:24.447Z,11.70
2019-05-18T22:12:37.318Z,11.60
2019-05-18T22:15:04.872Z,11.60
2019-05-18T22:17:32.436Z,11.50
2019-05-18T22:19:59.967Z,11.50
2019-05-18T22:22:28.528Z,11.40
2019-05-18T22:24:56.067Z,11.40
2019-05-18T22:27:23.624Z,11.30
2019-05-18T22:29:51.204Z,11.30
2019-05-18T22:32:18.744Z,11.20
2019-05-18T22:34:46.309Z,11.10
2019-05-18T22:37:13.848Z,11.20
2019-05-18T22:39:41.407Z,11.20
2019-05-18T22:42:08.944Z,11.10
2019-05-18T22:44:36.507Z,11.10
2019-05-18T22:47:04.043Z,11.10
2019-05-18T22:49:31.611Z,11.10
2019-05-18T22:51:59.178Z,11.20
2019-05-18T22:54:26.731Z,11.10
2019-05-18T22:56:54.276Z,11.00
2019-05-18T22:59:21.848Z,11.00
2019-05-18T23:01:49.408Z,10.90
2019-05-18T23:04:17.255Z,10.90
2019-05-18T23:06:44.792Z,11.00
2019-05-18T23:09:12.326Z,11.00
2019-05-18T23:11:39.884Z,11.00
2019-05-18T23:14:07.451Z,10.90
2019-05-18T23:16:35.778Z,10.90
2019-05-18T23:19:03.323Z,10.90
2019-05-18T23:21:30.985Z,10.90
2019-05-18T23:23:58.523Z,10.90
2019-05-18T23:26:26.084Z,10.90
2019-05-18T23:28:53.615Z,10.80
2019-05-18T23:31:22.167Z,10.90
2019-05-18T23:33:49.694Z,10.80
2019-05-18T23:36:17.257Z,10.80
2019-05-18T23:38:44.807Z,10.80
2019-05-18T23:41:12.462Z,10.80
2019-05-18T23:43:39.995Z,10.70
2019-05-18T23:46:07.683Z,10.60
2019-05-18T23:48:35.224Z,10.50
2019-05-18T23:51:02.757Z,10.60
2019-05-18T23:53:30.327Z,10.60
2019-05-18T23:55:57.867Z,10.60
2019-05-18T23:58:26.193Z,10.50
